createdAt,value
2019-03-25T00:01:39.938Z,53.70
2019-03-25T00:04:09.396Z,55.27
2019-03-25T00:06:38.999Z,52.40
2019-03-25T00:09:08.571Z,51.97
2019-03-25T00:11:37.910Z,51.50
2019-03-25T00:14:07.379Z,46.23
2019-03-25T00:16:36.974Z,51.77
2019-03-25T00:19:06.302Z,48.57
2019-03-25T00:21:35.618Z,45.40
2019-03-25T00:24:05.100Z,47.83
2019-03-25T00:26:34.561Z,43.57
2019-03-25T00:29:04.071Z,45.43
2019-03-25T00:31:33.389Z,47.83
2019-03-25T00:34:02.791Z,51.73
2019-03-25T00:36:32.166Z,47.50
2019-03-25T00:39:02.655Z,47.33
2019-03-25T00:41:33.465Z,48.33
2019-03-25T00:44:02.972Z,51.80
2019-03-25T00:46:32.485Z,47.07
2019-03-25T00:49:01.818Z,50.83
2019-03-25T00:51:31.152Z,49.93
2019-03-25T00:54:00.485Z,46.90
2019-03-25T00:56:30.190Z,49.13
2019-03-25T00:58:59.502Z,50.60
2019-03-25T01:01:28.999Z,43.10
2019-03-25T01:03:58.379Z,51.23
2019-03-25T01:06:28.706Z,47.70
2019-03-25T01:08:58.083Z,52.80
2019-03-25T01:11:27.610Z,46.40
2019-03-25T01:13:57.013Z,44.90
2019-03-25T01:16:26.335Z,44.03
2019-03-25T01:18:55.675Z,47.77
2019-03-25T01:21:25.250Z,50.93
2019-03-25T01:23:54.618Z,40.60
2019-03-25T01:26:23.942Z,47.43
2019-03-25T01:28:53.271Z,45.03
2019-03-25T01:31:22.583Z,45.33
2019-03-25T01:33:52.104Z,44.80
2019-03-25T01:36:21.430Z,48.87
2019-03-25T01:38:50.754Z,42.03
2019-03-25T01:41:20.093Z,45.40
2019-03-25T01:43:49.606Z,49.00
2019-03-25T01:46:18.931Z,46.10
2019-03-25T01:48:48.259Z,43.40
2019-03-25T01:51:17.609Z,45.70
2019-03-25T01:53:46.914Z,43.00
2019-03-25T01:56:16.290Z,42.20
2019-03-25T01:58:47.386Z,43.50
2019-03-25T02:01:16.718Z,41.40
2019-03-25T02:03:46.348Z,46.53
2019-03-25T02:06:15.714Z,45.53
2019-03-25T02:08:46.844Z,41.77
2019-03-25T02:11:16.231Z,42.67
2019-03-25T02:13:45.895Z,41.63
2019-03-25T02:16:15.270Z,40.60
2019-03-25T02:18:44.595Z,39.40
2019-03-25T02:21:13.990Z,41.17
2019-03-25T02:23:43.496Z,37.17
2019-03-25T02:26:12.942Z,43.53
2019-03-25T02:28:42.461Z,36.23
2019-03-25T02:31:11.787Z,39.50
2019-03-25T02:33:41.265Z,38.40
2019-03-25T02:36:10.931Z,39.87
2019-03-25T02:38:40.566Z,40.60
2019-03-25T02:41:09.903Z,38.90
2019-03-25T02:43:39.226Z,41.73
2019-03-25T02:46:08.555Z,36.97
2019-03-25T02:48:38.048Z,36.70
2019-03-25T02:51:07.397Z,35.23
2019-03-25T02:53:43.008Z,34.87
2019-03-25T02:56:14.850Z,34.60
2019-03-25T02:58:46.059Z,38.70
2019-03-25T03:01:15.403Z,35.80
2019-03-25T03:03:44.729Z,34.37
2019-03-25T03:06:14.266Z,35.83
2019-03-25T03:08:47.350Z,33.77
2019-03-25T03:11:14.678Z,35.23
2019-03-25T03:13:45.768Z,33.57
2019-03-25T03:16:15.112Z,32.33
2019-03-25T03:18:44.468Z,32.90
2019-03-25T03:21:14.022Z,28.27
2019-03-25T03:23:44.393Z,29.97
2019-03-25T03:26:13.871Z,29.53
2019-03-25T03:28:45.913Z,31.50
2019-03-25T03:31:15.230Z,33.33
2019-03-25T03:33:44.761Z,28.60
2019-03-25T03:36:14.111Z,27.33
2019-03-25T03:38:43.462Z,27.87
2019-03-25T03:41:13.769Z,27.67
2019-03-25T03:43:43.332Z,26.47
2019-03-25T03:46:12.811Z,28.63
2019-03-25T03:48:42.183Z,27.30
2019-03-25T03:51:11.659Z,29.67
2019-03-25T03:53:42.746Z,24.07
2019-03-25T03:56:14.184Z,23.30
2019-03-25T03:58:43.744Z,23.43
2019-03-25T04:01:13.283Z,26.90
2019-03-25T04:03:43.058Z,23.53
2019-03-25T04:06:12.490Z,24.30
2019-03-25T04:08:41.864Z,25.27
2019-03-25T04:11:11.190Z,26.07
2019-03-25T04:13:41.718Z,22.67
2019-03-25T04:16:11.042Z,24.33
2019-03-25T04:18:40.373Z,22.80
2019-03-25T04:21:09.713Z,24.47
2019-03-25T04:23:39.335Z,22.20
2019-03-25T04:26:08.730Z,25.43
2019-03-25T04:28:38.235Z,23.33
2019-03-25T04:31:07.553Z,25.27
2019-03-25T04:33:36.885Z,23.37
2019-03-25T04:36:06.224Z,25.03
2019-03-25T04:38:35.688Z,26.47
2019-03-25T04:41:05.294Z,20.27
2019-03-25T04:43:34.619Z,21.77
2019-03-25T04:46:03.955Z,22.70
2019-03-25T04:48:33.270Z,23.63
2019-03-25T04:51:03.006Z,21.80
2019-03-25T04:53:32.450Z,21.80
2019-03-25T04:56:01.839Z,20.67
2019-03-25T04:58:31.150Z,20.03
2019-03-25T05:01:00.675Z,19.03
2019-03-25T05:03:30.433Z,20.70
2019-03-25T05:05:59.954Z,21.70
2019-03-25T05:08:30.194Z,19.07
2019-03-25T05:10:59.922Z,17.57
2019-03-25T05:13:31.254Z,19.33
2019-03-25T05:16:00.676Z,19.73
2019-03-25T05:18:30.020Z,16.83
2019-03-25T05:20:59.536Z,17.67
2019-03-25T05:23:29.290Z,21.03
2019-03-25T05:25:58.850Z,16.57
2019-03-25T05:28:28.347Z,13.20
2019-03-25T05:30:58.369Z,16.10
2019-03-25T05:33:29.223Z,16.90
2019-03-25T05:35:59.020Z,18.50
2019-03-25T05:38:28.461Z,17.77
2019-03-25T05:40:57.781Z,21.60
2019-03-25T05:43:27.170Z,19.97
2019-03-25T05:45:56.818Z,19.03
2019-03-25T05:48:26.132Z,21.17
2019-03-25T05:50:55.458Z,21.17
2019-03-25T05:53:24.788Z,19.30
2019-03-25T05:55:54.120Z,19.20
2019-03-25T05:58:23.446Z,20.50
2019-03-25T06:00:52.779Z,21.30
2019-03-25T06:03:22.105Z,20.83
2019-03-25T06:05:51.629Z,20.60
2019-03-25T06:08:20.967Z,11.33
2019-03-25T06:10:50.293Z,18.10
2019-03-25T06:13:19.634Z,18.87
2019-03-25T06:15:49.150Z,24.53
2019-03-25T06:18:20.446Z,17.17
2019-03-25T06:20:49.722Z,22.63
2019-03-25T06:23:19.062Z,21.53
2019-03-25T06:25:48.389Z,18.57
2019-03-25T06:28:17.740Z,23.00
2019-03-25T06:30:47.248Z,22.43
2019-03-25T06:33:16.573Z,21.97
2019-03-25T06:35:46.484Z,20.50
2019-03-25T06:38:15.818Z,21.30
2019-03-25T06:40:49.036Z,19.57
2019-03-25T06:43:17.439Z,10.57
2019-03-25T06:45:46.999Z,17.00
2019-03-25T06:48:16.377Z,16.27
2019-03-25T06:50:45.747Z,24.50
2019-03-25T06:53:15.061Z,17.63
2019-03-25T06:55:44.618Z,21.17
2019-03-25T06:58:14.021Z,16.30
2019-03-25T07:00:43.340Z,9.03
2019-03-25T07:03:12.747Z,17.23
2019-03-25T07:05:42.348Z,20.37
2019-03-25T07:08:11.676Z,13.13
2019-03-25T07:10:41.005Z,16.37
2019-03-25T07:13:10.343Z,19.80
2019-03-25T07:15:39.652Z,14.73
2019-03-25T07:18:09.254Z,17.97
2019-03-25T07:20:38.750Z,15.53
2019-03-25T07:23:08.182Z,15.53
2019-03-25T07:25:38.466Z,9.97
2019-03-25T07:28:07.980Z,14.50
2019-03-25T07:30:37.294Z,16.17
2019-03-25T07:33:06.621Z,12.27
2019-03-25T07:35:35.978Z,11.90
2019-03-25T07:38:05.513Z,14.90
2019-03-25T07:40:35.017Z,13.43
2019-03-25T07:43:06.743Z,16.37
2019-03-25T07:45:37.071Z,18.93
2019-03-25T07:48:06.791Z,8.70
2019-03-25T07:50:36.201Z,15.40
2019-03-25T07:53:06.370Z,15.10
2019-03-25T07:55:35.962Z,15.07
2019-03-25T07:58:06.946Z,14.63
2019-03-25T08:00:36.320Z,9.90
2019-03-25T08:03:05.655Z,16.17
2019-03-25T08:05:34.988Z,12.93
2019-03-25T08:08:07.416Z,18.30
2019-03-25T08:10:37.191Z,10.80
2019-03-25T08:13:09.270Z,14.83
2019-03-25T08:15:38.895Z,14.27
2019-03-25T08:18:08.478Z,13.80
2019-03-25T08:20:37.793Z,12.40
2019-03-25T08:23:07.123Z,14.10
2019-03-25T08:25:36.741Z,17.33
2019-03-25T08:28:06.686Z,16.73
2019-03-25T08:30:36.186Z,14.17
2019-03-25T08:33:06.628Z,16.37
2019-03-25T08:35:36.152Z,13.87
2019-03-25T08:38:06.823Z,13.97
2019-03-25T08:40:36.465Z,16.57
2019-03-25T08:43:07.679Z,11.47
2019-03-25T08:45:37.074Z,14.73
2019-03-25T08:48:06.669Z,9.53
2019-03-25T08:50:36.008Z,13.80
2019-03-25T08:53:08.408Z,15.00
2019-03-25T08:55:38.039Z,17.60
2019-03-25T08:58:12.251Z,14.97
2019-03-25T09:00:38.673Z,14.90
2019-03-25T09:03:08.007Z,14.50
2019-03-25T09:05:37.407Z,14.90
2019-03-25T09:08:06.886Z,15.00
2019-03-25T09:10:36.228Z,9.77
2019-03-25T09:13:07.650Z,9.47
2019-03-25T09:15:36.996Z,15.00
2019-03-25T09:18:06.584Z,12.90
2019-03-25T09:20:35.945Z,7.23
2019-03-25T09:23:06.034Z,9.47
2019-03-25T09:25:38.376Z,7.07
2019-03-25T09:28:07.698Z,13.43
2019-03-25T09:30:55.073Z,12.93
2019-03-25T09:33:27.172Z,11.93
2019-03-25T09:35:56.688Z,14.23
2019-03-25T09:38:27.146Z,12.57
2019-03-25T09:40:56.954Z,14.73
2019-03-25T09:43:26.570Z,14.63
2019-03-25T09:45:57.022Z,12.87
2019-03-25T09:48:27.395Z,10.90
2019-03-25T09:50:57.209Z,10.90
2019-03-25T09:53:26.681Z,13.70
2019-03-25T09:55:56.051Z,12.37
2019-03-25T09:58:36.171Z,14.83
2019-03-25T10:00:59.283Z,10.57
2019-03-25T10:03:29.185Z,9.47
2019-03-25T10:05:59.155Z,14.83
2019-03-25T10:08:28.863Z,8.70
2019-03-25T10:10:58.272Z,12.30
2019-03-25T10:13:31.718Z,10.03
2019-03-25T10:16:01.421Z,12.63
2019-03-25T10:18:31.072Z,14.27
2019-03-25T10:21:00.839Z,12.30
2019-03-25T10:23:30.697Z,11.10
2019-03-25T10:26:01.405Z,10.70
2019-03-25T10:28:33.630Z,12.30
2019-03-25T10:31:03.137Z,9.13
2019-03-25T10:33:32.875Z,12.53
2019-03-25T10:36:02.261Z,11.30
2019-03-25T10:38:31.608Z,18.30
2019-03-25T10:41:01.261Z,11.27
2019-03-25T10:43:30.902Z,12.97
2019-03-25T10:46:00.484Z,10.50
2019-03-25T10:48:29.987Z,11.63
2019-03-25T10:51:01.414Z,12.03
2019-03-25T10:53:31.103Z,11.87
2019-03-25T10:56:00.467Z,8.07
2019-03-25T10:58:29.869Z,11.93
2019-03-25T11:00:59.491Z,8.07
2019-03-25T11:03:28.908Z,8.97
2019-03-25T11:05:58.254Z,11.27
2019-03-25T11:08:29.173Z,12.83
2019-03-25T11:10:58.981Z,8.57
2019-03-25T11:13:28.333Z,11.00
2019-03-25T11:15:57.943Z,10.77
2019-03-25T11:18:27.275Z,15.63
2019-03-25T11:20:56.745Z,16.10
2019-03-25T11:23:26.145Z,12.77
2019-03-25T11:25:55.485Z,13.27
2019-03-25T11:28:29.869Z,7.27
2019-03-25T11:30:59.339Z,10.90
2019-03-25T11:33:28.790Z,9.77
2019-03-25T11:35:59.480Z,12.03
2019-03-25T11:38:28.946Z,13.17
2019-03-25T11:40:58.414Z,11.13
2019-03-25T11:43:27.831Z,11.53
2019-03-25T11:45:57.425Z,12.27
2019-03-25T11:48:27.042Z,12.30
2019-03-25T11:50:56.448Z,7.03
2019-03-25T11:53:29.477Z,14.37
2019-03-25T11:55:58.955Z,12.77
2019-03-25T11:58:28.424Z,9.67
2019-03-25T12:00:57.960Z,11.67
2019-03-25T12:03:28.408Z,8.90
2019-03-25T12:05:57.783Z,12.50
2019-03-25T12:08:28.511Z,9.13
2019-03-25T12:10:58.169Z,13.23
2019-03-25T12:13:27.752Z,10.40
2019-03-25T12:15:57.210Z,10.13
2019-03-25T12:18:26.525Z,8.57
2019-03-25T12:20:55.970Z,6.60
2019-03-25T12:23:26.489Z,6.97
2019-03-25T12:25:56.121Z,9.10
2019-03-25T12:28:26.945Z,9.13
2019-03-25T12:30:56.470Z,8.27
2019-03-25T12:33:25.803Z,5.00
2019-03-25T12:35:55.411Z,8.40
2019-03-25T12:38:24.810Z,8.13
2019-03-25T12:40:54.130Z,8.30
2019-03-25T12:43:27.519Z,9.13
2019-03-25T12:45:56.883Z,8.70
2019-03-25T12:48:26.291Z,8.80
2019-03-25T12:50:55.855Z,9.30
2019-03-25T12:53:28.332Z,8.50
2019-03-25T12:55:57.714Z,8.57
2019-03-25T12:58:28.632Z,8.57
2019-03-25T13:00:58.178Z,8.40
2019-03-25T13:03:27.544Z,8.17
2019-03-25T13:05:57.110Z,9.70
2019-03-25T13:08:32.965Z,6.60
2019-03-25T13:10:59.743Z,6.03
2019-03-25T13:13:29.575Z,8.30
2019-03-25T13:16:02.213Z,9.23
2019-03-25T13:18:32.032Z,8.40
2019-03-25T13:21:01.735Z,4.83
2019-03-25T13:23:31.458Z,12.13
2019-03-25T13:26:03.498Z,9.97
2019-03-25T13:28:33.612Z,9.67
2019-03-25T13:31:03.513Z,8.57
2019-03-25T13:33:33.182Z,5.67
2019-03-25T13:36:02.543Z,8.53
2019-03-25T13:38:32.071Z,8.43
2019-03-25T13:41:02.263Z,7.00
2019-03-25T13:43:31.596Z,8.50
2019-03-25T13:46:05.656Z,6.87
2019-03-25T13:48:32.997Z,11.60
2019-03-25T13:51:03.947Z,10.00
2019-03-25T13:53:33.853Z,9.37
2019-03-25T13:56:04.476Z,9.90
2019-03-25T13:58:34.038Z,8.87
2019-03-25T14:01:04.579Z,6.87
2019-03-25T14:03:33.966Z,7.57
2019-03-25T14:06:10.593Z,7.83
2019-03-25T14:08:39.939Z,8.80
2019-03-25T14:11:09.368Z,7.00
2019-03-25T14:13:48.757Z,7.87
2019-03-25T14:16:10.425Z,9.73
2019-03-25T14:18:39.822Z,7.57
2019-03-25T14:21:09.137Z,8.53
2019-03-25T14:23:38.538Z,7.83
2019-03-25T14:26:07.857Z,3.40
2019-03-25T14:28:37.338Z,8.70
2019-03-25T14:31:06.666Z,5.40
2019-03-25T14:33:36.100Z,4.57
2019-03-25T14:36:05.484Z,3.87
2019-03-25T14:38:35.058Z,2.00
2019-03-25T14:41:04.629Z,1.50
2019-03-25T14:43:33.930Z,1.53
2019-03-25T14:46:03.268Z,1.23
2019-03-25T14:48:32.605Z,1.87
2019-03-25T14:51:02.174Z,2.13
2019-03-25T14:53:31.498Z,1.30
2019-03-25T14:56:01.018Z,2.57
2019-03-25T14:58:30.340Z,1.00
2019-03-25T15:00:59.684Z,2.33
2019-03-25T15:03:30.122Z,3.77
2019-03-25T15:05:59.446Z,3.40
2019-03-25T15:08:29.762Z,2.00
2019-03-25T15:10:59.251Z,1.97
2019-03-25T15:13:28.647Z,2.27
2019-03-25T15:15:58.033Z,1.50
2019-03-25T15:18:27.580Z,1.43
2019-03-25T15:20:56.905Z,1.43
2019-03-25T15:23:26.325Z,1.40
2019-03-25T15:25:55.726Z,2.17
2019-03-25T15:28:25.236Z,2.83
2019-03-25T15:30:54.572Z,3.00
2019-03-25T15:33:23.902Z,0.87
2019-03-25T15:35:53.269Z,1.00
2019-03-25T15:38:22.805Z,2.03
2019-03-25T15:40:52.143Z,1.37
2019-03-25T15:43:21.527Z,1.30
2019-03-25T15:45:52.026Z,1.83
2019-03-25T15:48:25.773Z,2.60
2019-03-25T15:50:55.297Z,1.77
2019-03-25T15:53:30.806Z,1.37
2019-03-25T15:56:00.167Z,1.37
2019-03-25T15:58:29.792Z,1.40
2019-03-25T16:00:59.237Z,2.23
2019-03-25T16:03:28.819Z,1.23
2019-03-25T16:05:58.374Z,2.53
2019-03-25T16:08:27.757Z,3.90
2019-03-25T16:10:57.098Z,3.13
2019-03-25T16:13:27.075Z,1.00
2019-03-25T16:15:58.100Z,1.20
2019-03-25T16:18:33.403Z,1.70
2019-03-25T16:21:02.902Z,1.50
2019-03-25T16:23:32.487Z,2.80
2019-03-25T16:26:02.035Z,1.13
2019-03-25T16:28:31.526Z,1.97
2019-03-25T16:31:00.936Z,0.87
2019-03-25T16:33:30.447Z,2.67
2019-03-25T16:35:59.774Z,3.20
2019-03-25T16:38:29.274Z,1.50
2019-03-25T16:40:58.861Z,3.90
2019-03-25T16:43:28.251Z,3.20
2019-03-25T16:45:57.586Z,2.93
2019-03-25T16:48:26.920Z,1.97
2019-03-25T16:50:56.352Z,2.77
2019-03-25T16:53:25.755Z,2.30
2019-03-25T16:55:55.387Z,2.97
2019-03-25T16:58:25.345Z,2.83
2019-03-25T17:00:54.998Z,2.03
2019-03-25T17:03:24.362Z,1.63
2019-03-25T17:05:53.879Z,4.83
2019-03-25T17:08:23.357Z,3.43
2019-03-25T17:10:52.747Z,3.47
2019-03-25T17:13:26.482Z,3.83
2019-03-25T17:15:55.809Z,4.60
2019-03-25T17:18:29.980Z,5.30
2019-03-25T17:20:59.298Z,4.60
2019-03-25T17:23:28.644Z,5.10
2019-03-25T17:25:58.042Z,5.20
2019-03-25T17:28:30.223Z,4.57
2019-03-25T17:30:59.657Z,6.63
2019-03-25T17:33:29.187Z,4.13
2019-03-25T17:35:58.513Z,4.03
2019-03-25T17:38:27.871Z,4.37
2019-03-25T17:40:57.181Z,4.80
2019-03-25T17:43:29.299Z,3.87
2019-03-25T17:45:58.881Z,5.30
2019-03-25T17:48:28.229Z,4.20
2019-03-25T17:50:57.931Z,4.63
2019-03-25T17:53:27.267Z,4.53
2019-03-25T17:55:56.606Z,6.23
2019-03-25T17:58:26.925Z,3.50
2019-03-25T18:01:02.024Z,3.77
2019-03-25T18:03:31.507Z,4.27
2019-03-25T18:06:00.857Z,5.77
2019-03-25T18:08:30.273Z,4.33
2019-03-25T18:10:59.679Z,14.93
2019-03-25T18:13:29.309Z,12.37
2019-03-25T18:15:58.784Z,8.50
2019-03-25T18:18:28.251Z,10.93
2019-03-25T18:20:57.570Z,6.00
2019-03-25T18:23:26.946Z,7.20
2019-03-25T18:25:56.362Z,5.50
2019-03-25T18:28:28.134Z,5.37
2019-03-25T18:30:57.619Z,5.03
2019-03-25T18:33:27.097Z,5.00
2019-03-25T18:35:56.540Z,4.40
2019-03-25T18:38:27.594Z,4.80
2019-03-25T18:40:56.999Z,4.87
2019-03-25T18:43:26.393Z,4.30
2019-03-25T18:45:55.953Z,4.87
2019-03-25T18:48:29.703Z,4.47
2019-03-25T18:50:59.237Z,5.00
2019-03-25T18:53:29.016Z,5.63
2019-03-25T18:55:58.529Z,4.87
2019-03-25T18:58:30.090Z,4.23
2019-03-25T19:00:59.609Z,4.93
2019-03-25T19:03:29.308Z,4.43
2019-03-25T19:05:58.733Z,4.90
2019-03-25T19:08:28.223Z,5.10
2019-03-25T19:10:57.880Z,6.47
2019-03-25T19:13:27.544Z,5.67
2019-03-25T19:15:56.942Z,4.17
2019-03-25T19:18:26.362Z,6.93
2019-03-25T19:20:55.899Z,5.00
2019-03-25T19:23:29.426Z,35.17
2019-03-25T19:25:58.838Z,104.80
2019-03-25T19:28:28.200Z,99.80
2019-03-25T19:30:57.647Z,22.83
2019-03-25T19:33:27.104Z,31.83
2019-03-25T19:35:56.643Z,20.77
2019-03-25T19:38:27.405Z,19.63
2019-03-25T19:40:56.770Z,14.73
2019-03-25T19:43:28.376Z,14.47
2019-03-25T19:45:57.954Z,12.80
2019-03-25T19:48:27.465Z,14.43
2019-03-25T19:50:57.066Z,11.00
2019-03-25T19:53:26.662Z,11.60
2019-03-25T19:55:56.498Z,12.23
2019-03-25T19:58:27.617Z,9.97
2019-03-25T20:00:57.267Z,8.53
2019-03-25T20:03:26.713Z,5.33
2019-03-25T20:05:56.388Z,5.83
2019-03-25T20:08:27.429Z,6.57
2019-03-25T20:10:56.848Z,3.43
2019-03-25T20:13:28.466Z,7.57
2019-03-25T20:15:58.006Z,5.37
2019-03-25T20:18:27.447Z,8.30
2019-03-25T20:20:56.829Z,7.70
2019-03-25T20:23:27.212Z,2.63
2019-03-25T20:25:56.915Z,5.47
2019-03-25T20:28:27.247Z,5.70
2019-03-25T20:30:57.725Z,7.23
2019-03-25T20:33:27.308Z,4.50
2019-03-25T20:35:56.694Z,5.10
2019-03-25T20:38:27.090Z,4.90
2019-03-25T20:40:56.858Z,5.40
2019-03-25T20:43:26.200Z,4.67
2019-03-25T20:45:55.654Z,5.70
2019-03-25T20:48:25.171Z,2.20
2019-03-25T20:50:54.620Z,4.97
2019-03-25T20:53:24.227Z,5.37
2019-03-25T20:55:53.709Z,5.27
2019-03-25T20:58:25.781Z,4.77
2019-03-25T21:00:55.715Z,5.00
2019-03-25T21:03:26.795Z,5.07
2019-03-25T21:05:56.134Z,3.77
2019-03-25T21:08:25.635Z,2.53
2019-03-25T21:10:55.017Z,4.50
2019-03-25T21:13:26.870Z,4.80
2019-03-25T21:15:56.540Z,4.47
2019-03-25T21:18:26.053Z,4.17
2019-03-25T21:20:55.431Z,6.20
2019-03-25T21:23:27.567Z,3.47
2019-03-25T21:25:56.975Z,3.97
2019-03-25T21:28:26.324Z,4.87
2019-03-25T21:30:55.873Z,6.17
2019-03-25T21:33:25.483Z,5.40
2019-03-25T21:35:54.966Z,5.23
2019-03-25T21:38:27.614Z,4.50
2019-03-25T21:40:57.014Z,7.80
2019-03-25T21:43:26.407Z,5.90
2019-03-25T21:45:57.128Z,3.57
2019-03-25T21:48:28.359Z,4.53
2019-03-25T21:50:57.784Z,7.43
2019-03-25T21:53:28.379Z,4.97
2019-03-25T21:55:57.834Z,7.10
2019-03-25T21:58:27.273Z,16.50
2019-03-25T22:00:58.243Z,8.20
2019-03-25T22:03:27.943Z,7.37
2019-03-25T22:05:57.268Z,60.77
2019-03-25T22:08:26.740Z,9.90
2019-03-25T22:10:56.090Z,9.87
2019-03-25T22:13:28.570Z,7.80
2019-03-25T22:15:58.149Z,9.03
2019-03-25T22:18:30.565Z,8.10
2019-03-25T22:20:58.642Z,7.53
2019-03-25T22:23:27.965Z,6.80
2019-03-25T22:25:57.306Z,7.23
2019-03-25T22:28:27.847Z,8.00
2019-03-25T22:30:57.873Z,6.53
2019-03-25T22:33:27.265Z,6.87
2019-03-25T22:35:56.606Z,6.67
2019-03-25T22:38:25.997Z,6.67
2019-03-25T22:40:55.525Z,6.27
2019-03-25T22:43:27.992Z,7.77
2019-03-25T22:45:57.318Z,5.83
2019-03-25T22:48:27.449Z,5.60
2019-03-25T22:51:01.500Z,5.80
2019-03-25T22:53:32.674Z,6.43
2019-03-25T22:56:02.252Z,6.07
2019-03-25T22:58:31.879Z,5.70
2019-03-25T23:01:02.748Z,4.87
2019-03-25T23:03:38.954Z,5.17
2019-03-25T23:06:03.785Z,4.70
2019-03-25T23:08:33.280Z,5.90
2019-03-25T23:11:02.651Z,4.67
2019-03-25T23:13:31.995Z,4.70
2019-03-25T23:16:02.450Z,5.77
2019-03-25T23:18:33.024Z,4.37
2019-03-25T23:21:02.528Z,6.10
2019-03-25T23:23:32.056Z,6.10
2019-03-25T23:26:01.614Z,6.17
2019-03-25T23:28:30.950Z,6.40
2019-03-25T23:31:00.367Z,7.10
2019-03-25T23:33:29.747Z,6.97
2019-03-25T23:35:59.366Z,5.50
2019-03-25T23:38:28.680Z,6.13
2019-03-25T23:40:57.990Z,6.50
2019-03-25T23:43:27.319Z,5.33
2019-03-25T23:45:56.794Z,5.90
2019-03-25T23:48:26.875Z,4.87
2019-03-25T23:50:56.255Z,7.20
2019-03-25T23:53:27.353Z,6.57
2019-03-25T23:55:56.677Z,4.63
2019-03-25T23:58:28.563Z,6.30
